• Join FlightAware (Why Join?)
  • Login
  • US Flag 
07:47PM EDT


 

Airport Tracker/Info


-or-


 

Live Flight TrackerFlight Track Log ✈ DAL2213 ✈ 16-Jul-2013 ✈ KATL - KMLB

Flight Track Log - Related Links

Times and Time Zones

All times are in EDT time to prevent confusion due to time zone crossing. See the DAL2213 flight status page for this flight to view local times or setup timezone preferences in your user account.

Time Position Orientation Groundspeed Altitude Reporting Facility
EDT Latitude Longitude Course Direction KTS MPH feet Rate Location/Type
01:19PM 33.6269 -84.3631 180° South 439 505 2,900  Level Atlanta Center
01:20PM 33.5958 -84.2883 117° Southeast 333 383 5,500 2,520 Climbing Atlanta Center
01:21PM 33.3803 -84.2636 140° Southeast  Level FlightAware Approximate
01:21PM 33.5228 -84.2806 175° South 297 342 8,000  Level Atlanta Center
01:22PM 33.2897 -84.1728 140° Southeast  Level FlightAware Approximate
01:22PM 33.4475 -84.2778 178° South 286 329 10,900  Level Atlanta Center
01:23PM 33.1990 -84.0821 140° Southeast  Level FlightAware Approximate
01:23PM 33.3619 -84.2553 168° South 301 346 12,200  Level Atlanta Center
01:24PM 33.1056 -84.0000 180° South  Level FlightAware Approximate
01:24PM 33.2828 -84.1731 139° Southeast 360 414 13,700  Level Atlanta Center
01:25PM 33.1931 -84.0836 140° Southeast 394 453 16,100 2,160 Climbing Atlanta Center
01:26PM 33.1033 -83.9992 142° Southeast 414 476 18,100 1,980 Climbing Atlanta Center
01:27PM 32.9969 -83.9050 143° Southeast 422 486 20,100 1,800 Climbing Atlanta Center
01:28PM 32.8944 -83.8161 144° Southeast 442 509 21,800 1,500 Climbing Atlanta Center
01:29PM 32.8025 -83.7422 146° Southeast 448 516 23,100 1,620 Climbing Atlanta Center
01:30PM 32.6958 -83.6539 145° Southeast 453 521 25,100 2,040 Climbing Atlanta Center
01:31PM 32.6014 -83.5606 140° Southeast 453 521 27,200 1,800 Climbing Atlanta Center
01:32PM 32.5072 -83.4650 139° Southeast 448 516 28,800 1,560 Climbing Atlanta Center
01:34PM 32.3703 -83.3256 139° Southeast 442 509 30,900 1,260 Climbing Jacksonville Center
01:35PM 32.2831 -83.2392 140° Southeast 425 489 31,800 540 Climbing Jacksonville Center
01:36PM 32.1892 -83.1478 141° Southeast 431 496 32,000 60 Climbing Jacksonville Center
01:37PM 32.0956 -83.0544 140° Southeast 436 502 32,000  Level Jacksonville Center
01:38PM 32.0017 -82.9611 140° Southeast 436 502 32,000  Level Jacksonville Center
01:39PM 31.9078 -82.8731 141° Southeast 441 507 32,000  Level Jacksonville Center
01:40PM 31.8136 -82.7778 139° Southeast 441 507 32,000  Level Jacksonville Center
01:41PM 31.7194 -82.6850 140° Southeast 441 507 32,000  Level Jacksonville Center
01:42PM 31.6233 -82.5950 141° Southeast 441 507 32,000  Level Jacksonville Center
01:43PM 31.5292 -82.5050 141° Southeast 441 507 32,000  Level Jacksonville Center
01:44PM 31.4286 -82.4203 144° Southeast 441 507 32,000  Level Jacksonville Center
01:45PM 31.3303 -82.3406 145° Southeast 441 507 32,000  Level Jacksonville Center
01:46PM 31.2294 -82.2561 144° Southeast 441 507 32,000  Level Jacksonville Center
01:47PM 31.1331 -82.1717 143° Southeast 441 507 32,000  Level Jacksonville Center
01:48PM 31.0322 -82.0875 144° Southeast 441 507 32,000  Level Jacksonville Center
01:49PM 30.9336 -82.0061 145° Southeast 441 507 32,000  Level Jacksonville Center
01:50PM 30.8328 -81.9225 145° Southeast 441 507 32,000  Level Jacksonville Center
01:51PM 30.7342 -81.8389 144° Southeast 441 507 32,000  Level Jacksonville Center
01:52PM 30.6331 -81.7531 144° Southeast 447 514 32,000  Level Jacksonville Center
01:53PM 30.5342 -81.6697 144° Southeast 447 514 32,000  Level Jacksonville Center
01:54PM 30.4331 -81.5867 145° Southeast 447 514 32,000  Level Jacksonville Center
01:55PM 30.3425 -81.5158 146° Southeast 447 514 32,000  Level Jacksonville Center
01:56PM 30.2414 -81.4331 145° Southeast 447 514 32,000  Level Jacksonville Center
01:57PM 30.1403 -81.3506 145° Southeast 447 514 32,000  Level Jacksonville Center
01:58PM 30.0392 -81.2683 145° Southeast 447 514 32,000  Level Jacksonville Center
01:59PM 29.9397 -81.1861 144° Southeast 447 514 32,000  Level Jacksonville Center
02:00PM 29.8344 -81.1064 147° Southeast 447 514 32,000  Level Jacksonville Center
02:01PM 29.7167 -81.0561 160° South 447 514 32,000 -840 Level Jacksonville Center
02:02PM 29.5933 -81.0319 170° South 447 514 30,400 -2,280 Descending Jacksonville Center
02:03PM 29.4697 -80.9986 167° South 452 520 27,500 -2,640 Descending Jacksonville Center
02:04PM 29.3481 -80.9653 167° South 452 520 25,200 -2,760 Descending Jacksonville Center
02:05PM 29.2286 -80.9342 167° South 447 514 22,000 -3,180 Descending Jacksonville Center
02:06PM 29.1153 -80.9033 167° South 437 503 18,900 -2,460 Descending Jacksonville Center
02:07PM 29.0086 -80.8792 169° South 412 474 17,100 -1,920 Descending Jacksonville Center
02:08PM 28.9081 -80.8553 168° South 388 447 15,100 -1,860 Descending Jacksonville Center
02:08PM 28.8167 -80.8500 177° South 371 427 13,900 -1,380 Descending Orlando TRACON
02:09PM 28.7333 -80.8667 190° South 371 427 12,900 -1,260 Descending Orlando TRACON
02:10PM 28.6333 -80.8667 180° South 330 380 11,600 -1,440 Descending Orlando TRACON
02:11PM 28.5500 -80.8667 180° South 296 341 10,000 -1,980 Descending Orlando TRACON
02:12PM 28.4667 -80.8833 190° South 286 329 7,700 -2,220 Descending Orlando TRACON
02:13PM 28.3833 -80.8667 170° South 250 288 5,400 -1,920 Descending Orlando TRACON
02:14PM 28.3167 -80.8333 156° South 241 277 3,700 -1,740 Descending Orlando TRACON
02:15PM 28.2500 -80.8167 168° South 246 283 1,800 -1,140 Descending Orlando TRACON
02:16PM 28.2000 -80.8000 164° South 196 226 1,600 -180 Descending Orlando TRACON
02:17PM 28.1667 -80.7833 156° South 211 243 1,600  Level Orlando TRACON